CST,Max TemperatureF,Mean TemperatureF,Min TemperatureF,Max Dew PointF,MeanDew PointF,Min DewpointF,Max Humidity, Mean Humidity, Min Humidity, Max Sea Level PressureIn, Mean Sea Level PressureIn, Min Sea Level PressureIn, Max VisibilityMiles, Mean VisibilityMiles, Min VisibilityMiles, Max Wind SpeedMPH, Mean Wind SpeedMPH, Max Gust SpeedMPH,PrecipitationIn, CloudCover, Events, WindDirDegrees
2012-12-1,85,76,67,72,68,66,100,78,55,30.13,30.08,30.04,10,10,8,22,11,30,0.00,2,,143
2012-12-2,85,75,65,69,66,63,100,74,48,30.13,30.08,30.04,10,10,10,20,9,24,0.00,1,,133
2012-12-3,85,74,62,69,65,63,100,74,48,30.06,30.02,29.96,10,8,0,25,11,31,0.00,0,Fog,149
2012-12-4,87,76,64,72,67,63,100,73,45,30.12,30.06,30.00,10,8,0,17,7,22,0.00,1,Fog,159
2012-12-5,79,69,58,71,65,57,100,78,56,30.19,30.11,30.04,10,10,2,18,7,23,0.30,5,Rain-Thunderstorm,350
2012-12-6,82,68,54,67,58,54,100,77,54,30.04,29.95,29.85,10,5,0,15,5,20,0.00,1,Fog,145
2012-12-7,84,74,63,70,67,64,100,78,55,29.87,29.82,29.77,10,9,2,23,11,28,0.01,1,,150
2012-12-8,84,77,69,72,69,67,100,78,55,29.89,29.84,29.79,10,9,7,23,10,28,0.00,4,,145
2012-12-9,83,77,71,72,70,68,100,82,63,29.90,29.83,29.78,10,8,5,24,11,29,0.00,4,,158
2012-12-10,75,63,51,73,52,30,100,68,36,30.10,29.96,29.78,10,8,4,25,11,36,0.02,5,Rain,339
2012-12-11,59,55,51,42,39,31,66,55,44,30.20,30.11,30.04,10,10,10,14,9,20,T,7,,343
2012-12-12,70,58,46,51,41,31,89,63,37,30.29,30.23,30.19,10,10,10,15,7,21,T,2,Rain,356
2012-12-13,76,65,53,62,56,50,93,74,54,30.23,30.18,30.12,10,10,10,20,9,25,0.00,7,,103
2012-12-14,79,74,68,71,66,62,84,76,67,30.12,30.01,29.91,10,10,10,25,14,33,T,7,,144
2012-12-15,85,79,72,73,71,69,94,78,61,29.92,29.87,29.82,10,9,7,30,14,38,0.00,6,,164
2012-12-16,85,78,70,72,71,70,100,83,65,29.88,29.80,29.72,10,7,2,22,10,26,T,5,Rain,182
2012-12-17,83,68,53,72,58,37,100,60,20,30.01,29.91,29.83,10,8,2,14,6,20,T,2,Rain,353
2012-12-18,85,67,49,72,63,50,100,76,51,29.98,29.90,29.83,10,8,0,24,11,29,0.00,2,Fog,154
2012-12-19,85,79,73,72,70,66,93,76,58,29.84,29.78,29.71,10,9,7,33,19,41,0.00,4,,165
2012-12-20,73,60,47,72,41,11,100,56,12,30.48,30.12,29.81,10,7,1,29,13,39,0.00,4,,303
2012-12-21,68,57,46,47,32,15,77,50,23,30.53,30.43,30.33,10,10,10,13,7,16,0.00,0,,8
2012-12-22,74,62,50,63,56,47,84,69,53,30.32,30.22,30.12,10,10,10,23,10,29,T,5,,131
2012-12-23,81,70,58,65,61,57,100,75,49,30.09,30.00,29.92,10,10,8,29,12,36,0.00,0,,175
2012-12-24,79,70,60,68,65,61,100,81,62,29.96,29.85,29.72,10,10,9,21,9,25,0.00,1,,168
2012-12-25,88,72,55,69,55,27,93,59,24,30.09,29.77,29.65,10,10,9,23,13,29,T,3,Rain,174
2012-12-26,56,48,39,40,29,23,76,53,30,30.28,30.17,30.09,10,10,10,20,9,28,0.00,1,,354
2012-12-27,71,60,49,62,51,40,87,70,53,30.07,29.88,29.79,10,10,10,8,2,10,0.00,7,,34
2012-12-28,72,63,53,65,55,40,100,68,35,30.12,29.87,29.75,10,10,7,18,8,26,0.00,4,,305
2012-12-29,61,54,46,48,37,25,71,55,39,30.44,30.35,30.14,10,10,10,20,12,30,0.00,0,,349
2012-12-30,72,58,44,60,44,23,70,54,38,30.40,30.27,30.14,10,10,10,18,9,24,T,5,,85
2012-12-31,81,73,64,67,64,61,93,76,58,30.14,30.00,29.90,10,10,8,29,15,37,T,7,Rain,174